createdAt,value
2019-01-02T00:00:17.655Z,3.30
2019-01-02T00:02:49.571Z,3.30
2019-01-02T00:05:32.959Z,3.20
2019-01-02T00:08:00.753Z,3.00
2019-01-02T00:10:38.748Z,2.80
2019-01-02T00:13:09.277Z,2.70
2019-01-02T00:15:44.058Z,2.50
2019-01-02T00:18:17.323Z,2.50
2019-01-02T00:20:58.515Z,2.40
2019-01-02T00:23:36.605Z,2.30
2019-01-02T00:26:12.530Z,2.50
2019-01-02T00:28:42.684Z,2.50
2019-01-02T00:31:16.715Z,2.60
2019-01-02T00:34:58.600Z,2.50
2019-01-02T00:36:32.536Z,2.30
2019-01-02T00:39:23.312Z,2.10
2019-01-02T00:42:01.467Z,2.10
2019-01-02T00:44:36.406Z,2.30
2019-01-02T00:47:10.970Z,2.20
2019-01-02T00:49:46.538Z,2.10
2019-01-02T00:52:34.665Z,2.10
2019-01-02T00:55:12.073Z,2.00
2019-01-02T00:57:56.751Z,1.70
2019-01-02T01:00:30.718Z,1.50
2019-01-02T01:03:12.149Z,1.40
2019-01-02T01:05:54.887Z,1.20
2019-01-02T01:09:02.911Z,1.10
2019-01-02T01:11:34.668Z,1.10
2019-01-02T01:14:06.973Z,1.20
2019-01-02T01:16:37.721Z,1.20
2019-01-02T01:19:09.174Z,1.20
2019-01-02T01:21:46.348Z,1.20
2019-01-02T01:24:20.418Z,1.20
2019-01-02T01:27:00.024Z,1.20
2019-01-02T01:29:30.214Z,1.10
2019-01-02T01:32:09.359Z,0.90
2019-01-02T01:34:47.145Z,0.90
2019-01-02T01:37:19.220Z,1.00
2019-01-02T01:40:07.043Z,1.20
2019-01-02T01:42:37.185Z,1.30
2019-01-02T01:45:26.181Z,1.30
2019-01-02T01:47:59.409Z,1.40
2019-01-02T01:50:31.284Z,1.50
2019-01-02T01:53:06.945Z,1.60
2019-01-02T01:55:45.396Z,1.70
2019-01-02T01:58:30.924Z,1.70
2019-01-02T02:01:05.342Z,1.80
2019-01-02T02:03:39.178Z,1.90
2019-01-02T02:06:21.305Z,1.90
2019-01-02T02:08:45.738Z,2.00
2019-01-02T02:11:20.002Z,2.30
2019-01-02T02:14:11.123Z,2.30
2019-01-02T02:16:47.233Z,2.30
2019-01-02T02:19:37.570Z,2.50
2019-01-02T02:22:04.825Z,2.30
2019-01-02T02:25:04.249Z,2.30
2019-01-02T02:27:50.650Z,2.20
2019-01-02T02:30:33.773Z,2.10
2019-01-02T02:33:06.348Z,1.90
2019-01-02T02:35:58.791Z,2.00
2019-01-02T02:38:34.035Z,1.80
2019-01-02T02:41:11.406Z,1.80
2019-01-02T02:43:48.075Z,1.80
2019-01-02T02:46:21.389Z,1.90
2019-01-02T02:48:53.934Z,1.90
2019-01-02T02:51:34.775Z,1.90
2019-01-02T02:54:03.972Z,2.20
2019-01-02T02:56:38.765Z,2.30
2019-01-02T02:59:20.591Z,2.30
2019-01-02T03:01:58.347Z,2.30
2019-01-02T03:04:37.534Z,2.40
2019-01-02T03:07:20.686Z,2.50
2019-01-02T03:10:19.799Z,2.50
2019-01-02T03:13:12.982Z,2.60
2019-01-02T03:15:55.857Z,2.70
2019-01-02T03:18:28.126Z,2.70
2019-01-02T03:21:06.229Z,2.90
2019-01-02T03:23:43.447Z,2.90
2019-01-02T03:26:28.639Z,2.90
2019-01-02T03:28:58.843Z,2.90
2019-01-02T03:31:33.528Z,2.90
2019-01-02T03:34:29.210Z,3.00
2019-01-02T03:37:09.719Z,3.00
2019-01-02T03:39:31.172Z,2.90
2019-01-02T03:42:01.356Z,2.80
2019-01-02T03:44:31.469Z,2.70
2019-01-02T03:47:06.093Z,2.60
2019-01-02T03:49:36.211Z,2.60
2019-01-02T03:52:08.092Z,2.60
2019-01-02T03:54:46.585Z,2.50
2019-01-02T03:57:14.003Z,2.60
2019-01-02T03:59:53.532Z,2.60
2019-01-02T04:02:24.593Z,2.60
2019-01-02T04:05:06.084Z,2.70
2019-01-02T04:08:00.612Z,2.80
2019-01-02T04:10:49.029Z,2.80
2019-01-02T04:13:23.283Z,2.70
2019-01-02T04:15:56.984Z,2.70
2019-01-02T04:18:28.636Z,2.80
2019-01-02T04:21:03.778Z,2.70
2019-01-02T04:23:34.002Z,2.80
2019-01-02T04:26:06.747Z,2.80
2019-01-02T04:28:40.035Z,2.80
2019-01-02T04:31:18.510Z,2.80
2019-01-02T04:34:10.321Z,2.80
2019-01-02T04:36:44.850Z,2.80
2019-01-02T04:39:15.257Z,2.70
2019-01-02T04:41:47.832Z,2.90
2019-01-02T04:44:22.984Z,2.80
2019-01-02T04:46:55.385Z,2.80
2019-01-02T04:49:29.582Z,2.80
2019-01-02T04:52:02.610Z,2.80
2019-01-02T04:54:35.255Z,2.80
2019-01-02T04:57:11.967Z,3.00
2019-01-02T04:59:51.988Z,3.10
2019-01-02T05:02:17.735Z,3.00
2019-01-02T05:04:51.891Z,3.00
2019-01-02T05:08:04.274Z,3.20
2019-01-02T05:14:11.578Z,3.10
2019-01-02T05:16:46.552Z,3.20
2019-01-02T05:19:19.036Z,3.30
2019-01-02T05:21:55.999Z,3.30
2019-01-02T05:24:26.537Z,3.30
2019-01-02T05:27:07.237Z,3.40
2019-01-02T05:29:37.450Z,3.30
2019-01-02T05:32:12.723Z,3.30
2019-01-02T05:34:47.840Z,3.30
2019-01-02T05:37:31.442Z,3.40
2019-01-02T05:40:09.918Z,3.30
2019-01-02T05:42:44.492Z,3.30
2019-01-02T05:45:14.841Z,3.20
2019-01-02T05:47:55.085Z,3.30
2019-01-02T05:50:27.794Z,3.40
2019-01-02T05:53:00.028Z,3.40
2019-01-02T05:55:35.289Z,3.40
2019-01-02T05:58:05.679Z,3.40
2019-01-02T06:00:42.697Z,3.40
2019-01-02T06:03:12.837Z,3.40
2019-01-02T06:05:48.357Z,3.50
2019-01-02T06:08:22.091Z,3.60
2019-01-02T06:10:55.835Z,3.60
2019-01-02T06:13:38.356Z,3.50
2019-01-02T06:16:11.147Z,3.50
2019-01-02T06:18:41.973Z,3.60
2019-01-02T06:21:20.280Z,3.60
2019-01-02T06:23:57.927Z,3.50
2019-01-02T06:26:26.609Z,3.40
2019-01-02T06:29:07.565Z,3.40
2019-01-02T06:31:40.150Z,3.40
2019-01-02T06:34:13.331Z,3.40
2019-01-02T06:36:46.382Z,3.40
2019-01-02T06:39:18.269Z,3.40
2019-01-02T06:41:50.038Z,3.50
2019-01-02T06:44:20.064Z,3.40
2019-01-02T06:46:50.256Z,3.30
2019-01-02T06:49:26.019Z,3.30
2019-01-02T06:51:56.447Z,3.20
2019-01-02T06:54:39.390Z,3.20
2019-01-02T06:57:24.225Z,3.20
2019-01-02T07:00:08.025Z,3.30
2019-01-02T07:02:38.079Z,3.30
2019-01-02T07:05:10.984Z,3.40
2019-01-02T07:10:52.223Z,3.40
2019-01-02T07:13:24.163Z,3.40
2019-01-02T07:15:57.540Z,3.40
2019-01-02T07:18:30.925Z,3.40
2019-01-02T07:21:01.365Z,3.30
2019-01-02T07:23:31.779Z,3.30
2019-01-02T07:26:04.492Z,3.30
2019-01-02T07:28:36.216Z,3.30
2019-01-02T07:31:11.161Z,3.20
2019-01-02T07:33:53.783Z,3.30
2019-01-02T07:37:12.729Z,3.20
2019-01-02T07:40:49.828Z,3.10
2019-01-02T07:43:37.557Z,3.30
2019-01-02T07:46:48.497Z,3.20
2019-01-02T07:50:06.577Z,3.30
2019-01-02T07:53:51.517Z,3.30
2019-01-02T07:57:17.598Z,3.30
2019-01-02T08:00:37.043Z,3.30
2019-01-02T08:03:45.083Z,3.30
2019-01-02T08:07:11.268Z,3.30
2019-01-02T08:10:24.435Z,3.30
2019-01-02T08:13:44.640Z,3.30
2019-01-02T08:16:43.791Z,3.40
2019-01-02T08:19:41.619Z,3.40
2019-01-02T08:22:58.949Z,3.40
2019-01-02T08:25:45.830Z,3.40
2019-01-02T08:28:55.463Z,3.50
2019-01-02T08:32:03.457Z,3.60
2019-01-02T08:34:55.750Z,3.60
2019-01-02T08:38:21.107Z,3.70
2019-01-02T08:41:20.563Z,3.70
2019-01-02T08:44:39.739Z,3.70
2019-01-02T08:49:08.415Z,3.70
2019-01-02T08:51:12.980Z,3.80
2019-01-02T08:54:06.618Z,3.80
2019-01-02T08:57:09.315Z,3.80
2019-01-02T09:00:29.376Z,3.80
2019-01-02T09:03:47.118Z,3.80
2019-01-02T09:07:05.443Z,3.80
2019-01-02T09:10:09.922Z,3.90
2019-01-02T09:13:19.137Z,3.90
2019-01-02T09:16:23.580Z,4.00
2019-01-02T09:19:55.167Z,3.90
2019-01-02T09:22:47.560Z,3.90
2019-01-02T09:26:02.817Z,4.00
2019-01-02T09:29:16.209Z,4.00
2019-01-02T09:32:34.213Z,4.00
2019-01-02T09:35:31.493Z,4.00
2019-01-02T09:38:44.286Z,4.10
2019-01-02T09:42:10.537Z,4.10
2019-01-02T09:45:20.291Z,4.10
2019-01-02T09:48:33.758Z,4.20
2019-01-02T09:51:41.329Z,4.20
2019-01-02T09:56:31.734Z,4.30
2019-01-02T09:58:14.046Z,4.30
2019-01-02T10:01:03.798Z,4.30
2019-01-02T10:04:07.135Z,4.30
2019-01-02T10:07:24.257Z,4.40
2019-01-02T10:10:33.471Z,4.50
2019-01-02T10:13:44.442Z,4.50
2019-01-02T10:16:43.983Z,4.50
2019-01-02T10:20:06.263Z,4.50
2019-01-02T10:23:18.108Z,4.50
2019-01-02T10:26:30.414Z,4.50
2019-01-02T10:29:37.446Z,4.60
2019-01-02T10:32:45.477Z,4.60
2019-01-02T10:35:52.014Z,4.50
2019-01-02T10:38:55.274Z,4.60
2019-01-02T10:42:07.970Z,4.70
2019-01-02T10:45:15.159Z,4.80
2019-01-02T10:48:26.646Z,4.80
2019-01-02T10:51:42.565Z,4.90
2019-01-02T10:54:41.052Z,5.00
2019-01-02T10:57:53.581Z,4.90
2019-01-02T11:01:14.849Z,5.00
2019-01-02T11:04:17.050Z,5.00
2019-01-02T11:07:24.327Z,5.10
2019-01-02T11:10:56.551Z,5.10
2019-01-02T11:13:59.102Z,5.10
2019-01-02T11:17:17.349Z,5.20
2019-01-02T11:20:22.658Z,5.20
2019-01-02T11:23:29.631Z,5.30
2019-01-02T11:26:49.325Z,5.30
2019-01-02T11:30:10.532Z,5.40
2019-01-02T11:33:09.124Z,5.40
2019-01-02T11:36:28.817Z,5.50
2019-01-02T11:39:13.918Z,5.50
2019-01-02T11:42:48.869Z,5.60
2019-01-02T11:45:31.891Z,5.60
2019-01-02T11:48:20.993Z,5.70
2019-01-02T11:51:05.184Z,5.70
2019-01-02T11:53:29.647Z,5.70
2019-01-02T11:56:11.750Z,5.80
2019-01-02T11:58:50.027Z,5.70
2019-01-02T12:01:24.532Z,5.70
2019-01-02T12:03:56.495Z,5.60
2019-01-02T12:06:33.125Z,5.70
2019-01-02T12:09:06.161Z,5.80
2019-01-02T12:11:40.449Z,5.90
2019-01-02T12:14:34.102Z,5.80
2019-01-02T12:16:44.908Z,5.90
2019-01-02T12:19:22.857Z,6.00
2019-01-02T12:21:55.602Z,6.00
2019-01-02T12:24:49.584Z,6.00
2019-01-02T12:27:39.841Z,5.90
2019-01-02T12:30:02.363Z,5.90
2019-01-02T12:32:34.273Z,5.80
2019-01-02T12:35:22.252Z,5.80
2019-01-02T12:37:54.533Z,5.80
2019-01-02T12:40:30.923Z,5.80
2019-01-02T12:43:08.531Z,5.80
2019-01-02T12:45:40.757Z,5.80
2019-01-02T12:48:20.092Z,5.70
2019-01-02T12:51:00.249Z,5.70
2019-01-02T12:53:43.874Z,5.80
2019-01-02T12:56:27.838Z,5.90
2019-01-02T12:58:58.335Z,5.80
2019-01-02T13:01:53.378Z,5.80
2019-01-02T13:04:47.765Z,5.90
2019-01-02T13:07:55.259Z,5.90
2019-01-02T13:10:42.722Z,5.80
2019-01-02T13:13:53.006Z,5.80
2019-01-02T13:16:58.540Z,5.70
2019-01-02T13:20:16.074Z,5.80
2019-01-02T13:23:25.782Z,5.70
2019-01-02T13:26:26.499Z,5.70
2019-01-02T13:30:00.086Z,5.70
2019-01-02T13:33:03.520Z,5.70
2019-01-02T13:36:24.428Z,5.60
2019-01-02T13:39:33.698Z,5.60
2019-01-02T13:42:48.569Z,5.60
2019-01-02T13:45:39.023Z,5.60
2019-01-02T13:48:45.084Z,5.60
2019-01-02T13:51:36.779Z,5.60
2019-01-02T13:54:10.046Z,5.60
2019-01-02T13:56:46.095Z,5.60
2019-01-02T13:59:23.900Z,5.50
2019-01-02T14:02:04.062Z,5.50
2019-01-02T14:04:47.136Z,5.50
2019-01-02T14:07:27.238Z,5.40
2019-01-02T14:10:04.809Z,5.40
2019-01-02T14:12:32.037Z,5.40
2019-01-02T14:15:07.995Z,5.40
2019-01-02T14:18:01.776Z,5.40
2019-01-02T14:20:36.393Z,5.30
2019-01-02T14:23:17.549Z,5.30
2019-01-02T14:25:41.659Z,5.30
2019-01-02T14:28:16.404Z,5.40
2019-01-02T14:30:55.737Z,5.40
2019-01-02T14:34:01.738Z,5.40
2019-01-02T14:36:58.582Z,5.40
2019-01-02T14:39:49.041Z,5.40
2019-01-02T14:42:41.303Z,5.30
2019-01-02T14:45:19.548Z,5.40
2019-01-02T14:48:09.555Z,5.30
2019-01-02T14:50:57.549Z,5.30
2019-01-02T14:53:32.511Z,5.30
2019-01-02T14:56:16.368Z,5.30
2019-01-02T14:58:57.285Z,5.30
2019-01-02T15:01:38.881Z,5.40
2019-01-02T15:04:13.075Z,5.30
2019-01-02T15:06:49.261Z,5.40
2019-01-02T15:09:20.739Z,5.30
2019-01-02T15:11:57.336Z,5.20
2019-01-02T15:14:33.210Z,5.20
2019-01-02T15:17:07.279Z,5.20
2019-01-02T15:19:38.991Z,5.20
2019-01-02T15:22:15.484Z,5.20
2019-01-02T15:24:54.810Z,5.20
2019-01-02T15:27:46.909Z,5.10
2019-01-02T15:30:17.277Z,5.20
2019-01-02T15:32:56.411Z,5.20
2019-01-02T15:35:39.419Z,5.20
2019-01-02T15:38:17.776Z,5.10
2019-01-02T15:41:04.854Z,5.10
2019-01-02T15:43:43.045Z,5.00
2019-01-02T15:46:16.707Z,5.00
2019-01-02T15:48:55.151Z,5.00
2019-01-02T15:51:34.519Z,5.00
2019-01-02T15:54:15.379Z,4.90
2019-01-02T15:56:54.632Z,4.90
2019-01-02T16:00:05.314Z,4.90
2019-01-02T16:02:42.380Z,5.00
2019-01-02T16:05:12.447Z,4.90
2019-01-02T16:07:45.290Z,4.80
2019-01-02T16:10:20.476Z,4.80
2019-01-02T16:12:51.991Z,4.90
2019-01-02T16:15:27.064Z,4.80
2019-01-02T16:18:09.324Z,4.80
2019-01-02T16:20:49.985Z,4.80
2019-01-02T16:23:27.477Z,4.70
2019-01-02T16:25:56.887Z,4.70
2019-01-02T16:28:32.847Z,4.70
2019-01-02T16:31:01.829Z,4.70
2019-01-02T16:33:35.614Z,4.70
2019-01-02T16:36:08.513Z,4.70
2019-01-02T16:38:59.920Z,4.60
2019-01-02T16:41:38.671Z,4.60
2019-01-02T16:44:19.591Z,4.60
2019-01-02T16:47:22.222Z,4.60
2019-01-02T16:49:56.314Z,4.60
2019-01-02T16:52:35.762Z,4.50
2019-01-02T16:55:06.191Z,4.50
2019-01-02T16:57:36.439Z,4.70
2019-01-02T17:00:35.672Z,4.60
2019-01-02T17:03:24.942Z,4.60
2019-01-02T17:05:59.944Z,4.60
2019-01-02T17:08:38.240Z,4.60
2019-01-02T17:11:14.219Z,4.50
2019-01-02T17:14:07.322Z,4.50
2019-01-02T17:16:37.780Z,4.50
2019-01-02T17:19:14.030Z,4.60
2019-01-02T17:21:47.136Z,4.60
2019-01-02T17:24:23.252Z,4.60
2019-01-02T17:26:58.950Z,4.50
2019-01-02T17:29:34.143Z,4.50
2019-01-02T17:32:04.791Z,4.50
2019-01-02T17:34:39.598Z,4.50
2019-01-02T17:37:11.582Z,4.50
2019-01-02T17:39:48.092Z,4.50
2019-01-02T17:42:40.369Z,4.50
2019-01-02T17:45:47.727Z,4.50
2019-01-02T17:48:09.643Z,4.50
2019-01-02T17:51:05.278Z,4.50
2019-01-02T17:53:30.870Z,4.50
2019-01-02T17:56:21.729Z,4.40
2019-01-02T17:58:54.684Z,4.40
2019-01-02T18:01:31.316Z,4.40
2019-01-02T18:04:08.331Z,4.50
2019-01-02T18:06:42.508Z,4.50
2019-01-02T18:09:20.125Z,4.50
2019-01-02T18:11:53.268Z,4.40
2019-01-02T18:14:25.660Z,4.40
2019-01-02T18:16:55.987Z,4.40
2019-01-02T18:19:34.507Z,4.50
2019-01-02T18:22:04.612Z,4.50
2019-01-02T18:24:34.848Z,4.50
2019-01-02T18:27:07.991Z,4.40
2019-01-02T18:29:36.988Z,4.40
2019-01-02T18:32:12.822Z,4.40
2019-01-02T18:34:49.409Z,4.30
2019-01-02T18:37:29.890Z,4.30
2019-01-02T18:39:52.544Z,4.30
2019-01-02T18:42:23.666Z,4.20
2019-01-02T18:45:02.625Z,4.20
2019-01-02T18:47:38.749Z,4.20
2019-01-02T18:50:08.122Z,4.20
2019-01-02T18:52:47.442Z,4.30
2019-01-02T18:55:22.967Z,4.30
2019-01-02T18:57:53.542Z,4.20
2019-01-02T19:00:29.876Z,4.20
2019-01-02T19:03:05.202Z,4.30
2019-01-02T19:05:44.159Z,4.20
2019-01-02T19:08:42.411Z,4.20
2019-01-02T19:11:27.758Z,4.20
2019-01-02T19:14:04.339Z,4.20
2019-01-02T19:16:37.400Z,4.20
2019-01-02T19:19:14.991Z,4.20
2019-01-02T19:21:41.796Z,4.10
2019-01-02T19:24:33.567Z,4.10
2019-01-02T19:27:10.707Z,4.10
2019-01-02T19:29:44.132Z,4.10
2019-01-02T19:32:38.700Z,4.10
2019-01-02T19:35:12.864Z,4.10
2019-01-02T19:37:55.237Z,4.00
2019-01-02T19:40:47.271Z,3.90
2019-01-02T19:43:26.728Z,3.90
2019-01-02T19:46:00.536Z,4.00
2019-01-02T19:48:50.850Z,4.00
2019-01-02T19:51:17.186Z,3.80
2019-01-02T19:53:55.945Z,3.80
2019-01-02T19:56:30.666Z,3.70
2019-01-02T19:59:08.021Z,3.80
2019-01-02T20:01:38.173Z,3.70
2019-01-02T20:04:12.559Z,3.80
2019-01-02T20:06:47.909Z,3.80
2019-01-02T20:09:21.463Z,3.80
2019-01-02T20:12:03.536Z,3.80
2019-01-02T20:14:37.964Z,3.80
2019-01-02T20:17:10.277Z,3.80
2019-01-02T20:19:57.276Z,3.80
2019-01-02T20:22:34.431Z,3.80
2019-01-02T20:25:32.318Z,3.80
2019-01-02T20:28:05.912Z,3.80
2019-01-02T20:30:35.026Z,3.80
2019-01-02T20:33:27.862Z,3.80
2019-01-02T20:35:59.811Z,3.80
2019-01-02T20:38:49.496Z,3.80
2019-01-02T20:41:22.385Z,3.80
2019-01-02T20:43:54.362Z,3.90
2019-01-02T20:46:26.949Z,3.90
2019-01-02T20:49:01.274Z,3.80
2019-01-02T20:51:32.965Z,3.80
2019-01-02T20:54:05.370Z,3.80
2019-01-02T20:56:38.811Z,3.70
2019-01-02T20:59:11.775Z,3.80
2019-01-02T21:01:49.465Z,3.80
2019-01-02T21:04:21.726Z,3.70
2019-01-02T21:06:58.343Z,3.80
2019-01-02T21:09:34.253Z,3.70
2019-01-02T21:12:07.862Z,3.70
2019-01-02T21:14:44.641Z,3.70
2019-01-02T21:17:17.097Z,3.70
2019-01-02T21:19:51.027Z,3.70
2019-01-02T21:22:23.908Z,3.80
2019-01-02T21:25:00.000Z,3.80
2019-01-02T21:27:33.469Z,3.70
2019-01-02T21:30:04.056Z,3.70
2019-01-02T21:32:38.001Z,3.70
2019-01-02T21:35:16.393Z,3.70
2019-01-02T21:37:52.089Z,3.70
2019-01-02T21:40:30.750Z,3.70
2019-01-02T21:43:08.119Z,3.70
2019-01-02T21:45:42.125Z,3.70
2019-01-02T21:48:19.764Z,3.80
2019-01-02T21:50:51.970Z,3.80
2019-01-02T21:53:27.518Z,3.70
2019-01-02T21:56:05.547Z,3.80
2019-01-02T21:58:36.100Z,3.70
2019-01-02T22:01:35.348Z,3.70
2019-01-02T22:04:13.267Z,3.70
2019-01-02T22:06:37.548Z,3.70
2019-01-02T22:09:12.360Z,3.80
2019-01-02T22:11:43.907Z,3.80
2019-01-02T22:14:22.610Z,3.90
2019-01-02T22:16:57.408Z,3.90
2019-01-02T22:19:38.613Z,3.80
2019-01-02T22:22:29.494Z,3.70
2019-01-02T22:25:03.516Z,3.60
2019-01-02T22:27:33.716Z,3.60
2019-01-02T22:30:03.804Z,3.60
2019-01-02T22:32:42.854Z,3.60
2019-01-02T22:35:32.620Z,3.60
2019-01-02T22:38:09.936Z,3.50
2019-01-02T22:40:59.422Z,3.50
2019-01-02T22:43:30.120Z,3.60
2019-01-02T22:46:18.289Z,3.60
2019-01-02T22:49:13.598Z,3.60
2019-01-02T22:51:54.031Z,3.60
2019-01-02T22:54:49.210Z,3.60
2019-01-02T22:57:21.829Z,3.50
2019-01-02T23:00:37.571Z,3.50
2019-01-02T23:03:30.908Z,3.50
2019-01-02T23:06:22.841Z,3.60
2019-01-02T23:09:51.435Z,3.60
2019-01-02T23:12:36.701Z,3.70
2019-01-02T23:15:29.530Z,3.60
2019-01-02T23:18:19.324Z,3.60
2019-01-02T23:21:18.104Z,3.60
2019-01-02T23:24:07.390Z,3.60
2019-01-02T23:26:59.497Z,3.50
2019-01-02T23:29:56.667Z,3.60
2019-01-02T23:32:48.185Z,3.60
2019-01-02T23:35:37.286Z,3.60
2019-01-02T23:38:47.033Z,3.60
2019-01-02T23:41:42.649Z,3.60
2019-01-02T23:44:45.869Z,3.50
2019-01-02T23:48:04.370Z,3.50
2019-01-02T23:50:53.763Z,3.50
2019-01-02T23:54:15.776Z,3.50
2019-01-02T23:57:26.471Z,3.60
